Mound, Texas
Current Conditions -  °F | °C
As of 9:15 PM on Thursday 18 Dec 2014 (Local Time) from KGOP Reporting Station
Overcast Overcast  
Wind Chill: 46°   Ceiling: 800
Heat Index: 48°   Visibility: 8mi
Dew Point: 46°   Wind: 6mph
Humidity: 93%   Direction: 50°NE
Pressure: 30.17"   Gusts: NA
Location:  31.35°N, 97.64°W
Report Text: KGOP 190315Z AUTO 05005KT 8SM OVC008 09/08 A3017 RMK AO2 PWINO
Loading
Personal Weather Stations






























Interactive Weather Map New forecast layout! Learn more

10-Day Weather Forecast

Advertisements
Track Severe Weather on mobile